메인 페이지
METAR-TAF:

METAR-TAF

공항 :

Randolph Air Force Base

유니버설시티, 텍사스, 미국

위도: 29-32N, 경도: 098-17W, 고도: 232m

현재 날씨관측

예보는 26분 전, 12:55시(UTC)에 발표되었습니다.
무풍
온도 26°C
습도 84%
기압 1013 hPa
시정: 16.1km
고도 1500ft 상공 구름 많음

METAR: KRND 131255Z AUTO 00000KT 10SM BKN015 26/23 A2992 RMK AO2 SLP123 T02560234

시각: 08:21 (13:21 UTC)

예보

예보는 2 시간 38분 전, 10:43시(UTC)에 발표되었습니다.
예보 대상 시간: 13일 10시부터 14일 16시까지 (UTC)
여러 방향의 바람 6kt
시정 10km 이상
고도 1500ft 상공 구름 조금
고도 6000ft 상공 구름 보통
일시적
13일 12시부터 13일 15시까지 (UTC)
고도 1500ft 상공 구름 많음
고도 6000ft 상공 구름 많음
전환 중
13일 15시부터 13일 16시까지 (UTC)
9kt
시정 10km 이상
고도 6000ft 상공 구름 보통
전환 중
14일 08시부터 14일 09시까지 (UTC)
여러 방향의 바람 6kt
시정 10km 이상
고도 2000ft 상공 구름 많음
전환 중
14일 15시부터 14일 16시까지 (UTC)
동남동12kt
시정 10km 이상
고도 4000ft 상공 구름 보통

TAF: KRND 131043Z 1310/1416 VRB06KT 9999 FEW015 SCT060 QNH2987INS TEMPO 1312/1315 BKN015 BKN060 BECMG 1315/1316 10009KT 9999 SCT060 QNH2982INS BECMG 1408/1409 VRB06KT 9999 BKN020 QNH2989INS BECMG 1415/1416 12012KT 9999 SCT040 QNH2993INS TX35/1322Z TN24/1311Z

4,000개 이상의 공항 관측 자료 및 예보 (METAR 및 TAF 보고).

지도상에서 검색 가능한 기상관측소가 노란 점과 빨간 점으로 표시되어 있습니다.

기상관측소 명을 보려면 표시 위로 마우스를 이동하세요.

날씨 관측과 예보를 보려면 클릭하세요.

지도 변경 : 확대하려면 엑스 표시가 있는 녹색 버튼, 축소하려면 빼기 표시가 있는 녹색 버튼, 다음 페이지의 지도를 보려면 녹색 화살표를 클릭하세요.


METAR-TAF: